Time;durP1;ratioP1;P1;durP2;ratioP2;P2;SDS_P1;SDS_P2;PMS_P1;PMS_P2;Temp;Humidity;BMP_temperature;BMP_pressure;BME280_temperature;BME280_humidity;BME280_pressure;Samples;Min_cycle;Max_cycle;Signal;HPM_P1;HPM_P2
2023/08/05 00:00:26;;;;;;;3.33;2.10;;;14.60;99.90;;;;;;5062654;28;20173;-80
2023/08/05 00:02:51;;;;;;;3.77;2.10;;;14.50;99.90;;;;;;5062834;28;20205;-80
2023/08/05 00:05:17;;;;;;;3.13;2.20;;;14.40;99.90;;;;;;5062816;28;20173;-80
2023/08/05 00:07:43;;;;;;;2.93;2.10;;;14.40;99.90;;;;;;5062786;28;20189;-79
2023/08/05 00:10:09;;;;;;;2.40;1.90;;;14.40;99.90;;;;;;5080040;28;20191;-79
2023/08/05 00:12:34;;;;;;;3.00;1.90;;;14.30;99.90;;;;;;5079704;28;20181;-80
2023/08/05 00:15:01;;;;;;;2.47;1.90;;;14.30;99.90;;;;;;5061831;28;20173;-80
2023/08/05 00:17:26;;;;;;;3.33;2.20;;;14.20;99.90;;;;;;5078963;28;20201;-79
2023/08/05 00:19:52;;;;;;;2.73;2.27;;;14.20;99.90;;;;;;5062339;28;20192;-80
2023/08/05 00:22:18;;;;;;;2.30;2.10;;;14.30;99.90;;;;;;5080783;28;20231;-80
2023/08/05 00:24:43;;;;;;;3.17;2.13;;;14.30;99.90;;;;;;5062357;28;20239;-79
2023/08/05 00:27:09;;;;;;;2.23;2.03;;;14.50;99.90;;;;;;5063238;28;20227;-79
2023/08/05 00:29:34;;;;;;;2.70;2.23;;;14.40;99.90;;;;;;5062373;28;20172;-79
2023/08/05 00:32:00;;;;;;;4.53;2.00;;;14.50;99.90;;;;;;5079932;28;20184;-80
2023/08/05 00:34:25;;;;;;;6.53;1.93;;;14.40;99.90;;;;;;5062757;28;20241;-79
2023/08/05 00:36:51;;;;;;;2.60;1.90;;;14.40;99.90;;;;;;5080415;28;20234;-79
2023/08/05 00:39:18;;;;;;;6.50;2.20;;;14.30;99.90;;;;;;5062690;28;20177;-79
2023/08/05 00:41:43;;;;;;;4.00;2.37;;;14.20;99.90;;;;;;5080596;28;20215;-79
2023/08/05 00:44:09;;;;;;;6.53;2.23;;;14.10;99.90;;;;;;5062933;28;20165;-79
2023/08/05 00:46:34;;;;;;;3.30;2.13;;;14.00;99.90;;;;;;5080108;28;20200;-80
2023/08/05 00:49:00;;;;;;;2.87;1.93;;;14.00;99.90;;;;;;5062333;28;20173;-79
2023/08/05 00:51:26;;;;;;;3.53;1.97;;;14.00;99.90;;;;;;5080420;28;20177;-77
2023/08/05 00:53:51;;;;;;;3.17;2.03;;;14.00;99.90;;;;;;5062639;28;20191;-80
2023/08/05 00:56:17;;;;;;;2.73;2.00;;;14.00;99.90;;;;;;5062720;28;20177;-79
2023/08/05 00:58:44;;;;;;;3.93;2.23;;;14.10;99.90;;;;;;5080087;28;20173;-80
2023/08/05 01:01:10;;;;;;;2.63;2.23;;;14.10;99.90;;;;;;5078781;28;20330;-79
2023/08/05 01:03:36;;;;;;;2.40;2.13;;;14.10;99.90;;;;;;5079718;28;20173;-79
2023/08/05 01:06:04;;;;;;;3.23;2.10;;;14.10;99.90;;;;;;5079427;28;20372;-79
2023/08/05 01:08:30;;;;;;;3.87;2.20;;;14.10;99.90;;;;;;5080036;28;20223;-79
2023/08/05 01:10:56;;;;;;;3.23;2.20;;;14.10;99.90;;;;;;5079350;28;20173;-79
2023/08/05 01:13:22;;;;;;;3.80;2.07;;;14.10;99.90;;;;;;5061542;28;20246;-80
2023/08/05 01:15:47;;;;;;;2.87;2.20;;;14.20;99.90;;;;;;5061559;28;20180;-79
2023/08/05 01:18:15;;;;;;;2.67;2.20;;;14.10;99.90;;;;;;5062307;28;20222;-79
2023/08/05 01:20:46;;;;;;;2.33;1.97;;;14.20;99.90;;;;;;5079339;28;20196;-79
2023/08/05 01:23:40;;;;;;;2.80;2.17;;;14.20;99.90;;;;;;5079135;28;20177;-80
2023/08/05 01:26:07;;;;;;;3.60;2.23;;;14.10;99.90;;;;;;5079513;28;20170;-79
2023/08/05 01:28:34;;;;;;;2.33;2.10;;;14.10;99.90;;;;;;5061452;28;20610;-80
2023/08/05 01:31:01;;;;;;;2.67;2.03;;;14.20;99.90;;;;;;5060988;28;20177;-79
2023/08/05 01:33:28;;;;;;;2.23;2.03;;;14.20;99.90;;;;;;5061543;28;20189;-79
2023/08/05 01:35:53;;;;;;;3.73;2.07;;;14.10;99.90;;;;;;5062213;28;20199;-79
2023/08/05 01:38:19;;;;;;;2.47;2.10;;;14.00;99.90;;;;;;5062425;28;20196;-79
2023/08/05 01:40:45;;;;;;;3.10;2.13;;;14.00;99.90;;;;;;5061360;28;20200;-79
2023/08/05 01:43:10;;;;;;;3.03;2.17;;;13.90;99.90;;;;;;5061636;28;20173;-79
2023/08/05 01:45:36;;;;;;;3.70;2.10;;;13.90;99.90;;;;;;5079205;28;20185;-80
2023/08/05 01:48:02;;;;;;;2.73;2.30;;;14.00;99.90;;;;;;5061431;28;20199;-79
2023/08/05 01:50:27;;;;;;;2.27;2.07;;;14.00;99.90;;;;;;5078690;28;20210;-80
2023/08/05 01:52:53;;;;;;;3.40;2.00;;;14.00;99.90;;;;;;5061151;28;20204;-79
2023/08/05 01:55:19;;;;;;;3.40;2.30;;;13.90;99.90;;;;;;5079198;28;20177;-79
2023/08/05 01:57:45;;;;;;;4.17;2.00;;;13.70;99.90;;;;;;5061653;28;20200;-79
2023/08/05 02:00:11;;;;;;;3.07;2.03;;;13.70;99.90;;;;;;5061092;28;20177;-79
2023/08/05 02:02:36;;;;;;;2.10;1.90;;;13.60;99.90;;;;;;5061475;28;20200;-79
2023/08/05 02:05:02;;;;;;;6.27;2.03;;;13.50;99.90;;;;;;5079017;28;20177;-79
2023/08/05 02:07:28;;;;;;;5.83;2.20;;;13.40;99.90;;;;;;5078534;28;20197;-81
2023/08/05 02:09:53;;;;;;;4.77;2.30;;;13.30;99.90;;;;;;5060400;28;20181;-79
2023/08/05 02:12:19;;;;;;;3.93;2.30;;;13.20;99.90;;;;;;5060614;28;20195;-79
2023/08/05 02:14:44;;;;;;;5.50;2.73;;;13.10;99.90;;;;;;5060617;28;20188;-80
2023/08/05 02:17:10;;;;;;;4.03;3.17;;;13.20;99.90;;;;;;5060791;28;20200;-79
2023/08/05 02:19:35;;;;;;;7.13;2.60;;;13.20;99.90;;;;;;5078063;28;20197;-77
2023/08/05 02:22:01;;;;;;;3.67;2.33;;;13.20;99.90;;;;;;5060790;28;20683;-79
2023/08/05 02:24:28;;;;;;;2.40;2.20;;;13.20;99.90;;;;;;5061057;28;20208;-79
2023/08/05 02:26:53;;;;;;;2.73;2.03;;;13.20;99.90;;;;;;5060695;28;20211;-80
2023/08/05 02:29:19;;;;;;;2.30;2.00;;;13.20;99.90;;;;;;5060097;28;20184;-80
2023/08/05 02:31:44;;;;;;;2.93;2.53;;;13.20;99.90;;;;;;5060437;28;20181;-79
2023/08/05 02:34:10;;;;;;;2.57;2.23;;;13.20;99.90;;;;;;5061562;28;20173;-79
2023/08/05 02:36:36;;;;;;;3.73;2.10;;;13.30;99.90;;;;;;5078287;28;20689;-77
2023/08/05 02:39:01;;;;;;;3.93;2.43;;;13.30;99.90;;;;;;5059755;28;20183;-79
2023/08/05 02:41:27;;;;;;;4.67;2.30;;;13.40;99.90;;;;;;5077664;28;20196;-79
2023/08/05 02:43:52;;;;;;;3.37;2.77;;;13.40;99.90;;;;;;5059778;28;20275;-79
2023/08/05 02:46:18;;;;;;;5.70;2.80;;;13.30;99.90;;;;;;5060030;28;20173;-79
2023/08/05 02:48:43;;;;;;;4.47;2.70;;;13.20;99.90;;;;;;5077345;28;20173;-80
2023/08/05 02:51:09;;;;;;;3.47;2.63;;;13.10;99.90;;;;;;5060338;28;20184;-79
2023/08/05 02:53:34;;;;;;;3.70;2.73;;;13.10;99.90;;;;;;5078316;28;20326;-79
2023/08/05 02:56:00;;;;;;;8.47;3.30;;;13.10;99.90;;;;;;5059830;28;20184;-79
2023/08/05 02:58:26;;;;;;;4.43;2.90;;;13.30;99.90;;;;;;5060657;28;20673;-78
2023/08/05 03:00:52;;;;;;;4.10;3.00;;;13.30;99.90;;;;;;5078114;28;20173;-79
2023/08/05 03:03:17;;;;;;;6.03;3.07;;;13.30;99.90;;;;;;5060397;28;20264;-79
2023/08/05 03:05:43;;;;;;;6.53;3.10;;;13.30;99.90;;;;;;5060054;28;20260;-80
2023/08/05 03:08:10;;;;;;;9.50;3.17;;;13.40;99.90;;;;;;5077788;28;20200;-80
2023/08/05 03:10:39;;;;;;;9.23;3.40;;;13.30;99.90;;;;;;5058111;28;20169;-79
2023/08/05 03:13:05;;;;;;;6.67;2.63;;;13.30;99.90;;;;;;5058316;28;20173;-80
2023/08/05 03:15:30;;;;;;;7.50;2.60;;;13.30;99.90;;;;;;5058833;28;20180;-79
2023/08/05 03:17:56;;;;;;;5.67;2.80;;;13.20;99.90;;;;;;5076120;28;20264;-80
2023/08/05 03:20:32;;;;;;;5.37;2.73;;;13.00;99.90;;;;;;5076010;28;20233;-79
2023/08/05 03:22:57;;;;;;;2.60;2.40;;;12.90;99.90;;;;;;5058068;28;20209;-79
2023/08/05 03:25:25;;;;;;;3.40;2.40;;;12.90;99.90;;;;;;5062910;28;20179;-79
2023/08/05 03:27:51;;;;;;;3.40;2.13;;;13.00;99.90;;;;;;5064142;28;20193;-79
2023/08/05 03:30:17;;;;;;;4.03;2.73;;;13.00;99.90;;;;;;5063776;28;20174;-79
2023/08/05 03:32:43;;;;;;;3.77;2.47;;;13.10;99.90;;;;;;5081904;28;20204;-79
2023/08/05 03:35:09;;;;;;;6.97;2.80;;;13.10;99.90;;;;;;5063794;28;20173;-78
2023/08/05 03:37:34;;;;;;;6.83;2.87;;;13.00;99.90;;;;;;5064373;28;20197;-79
2023/08/05 03:40:00;;;;;;;2.70;2.50;;;13.10;99.90;;;;;;5082019;28;20196;-80
2023/08/05 03:42:25;;;;;;;4.90;2.50;;;13.10;99.90;;;;;;5063735;28;20295;-79
2023/08/05 03:44:51;;;;;;;3.30;2.90;;;13.00;99.90;;;;;;5083011;28;20173;-79
2023/08/05 03:47:17;;;;;;;3.10;2.80;;;13.00;99.90;;;;;;5081707;28;20691;-79
2023/08/05 03:49:42;;;;;;;5.27;2.90;;;13.00;99.90;;;;;;5063976;28;20177;-79
2023/08/05 03:52:09;;;;;;;4.17;2.90;;;12.90;99.90;;;;;;5081719;28;20264;-80
2023/08/05 03:54:34;;;;;;;3.80;2.67;;;13.10;99.90;;;;;;5081398;28;20180;-81
2023/08/05 03:57:02;;;;;;;3.67;2.70;;;13.00;99.90;;;;;;5081542;28;20197;-79
2023/08/05 03:59:28;;;;;;;6.10;2.70;;;12.90;99.90;;;;;;5063299;28;20632;-79
2023/08/05 04:01:54;;;;;;;6.47;3.17;;;12.90;99.90;;;;;;5081191;28;20200;-79
2023/08/05 04:04:19;;;;;;;9.17;3.07;;;12.80;99.90;;;;;;5063771;28;20169;-79
2023/08/05 04:06:45;;;;;;;3.43;2.60;;;12.80;99.90;;;;;;5081669;28;20189;-79
2023/08/05 04:09:12;;;;;;;3.27;2.60;;;12.80;99.90;;;;;;5063221;28;20173;-79
2023/08/05 04:11:37;;;;;;;5.57;2.73;;;12.80;99.90;;;;;;5063475;28;20177;-79
2023/08/05 04:14:04;;;;;;;5.87;2.80;;;12.80;99.90;;;;;;5063391;28;20272;-80
2023/08/05 04:16:30;;;;;;;7.07;3.47;;;12.80;99.90;;;;;;5063187;28;20260;-79
2023/08/05 04:18:57;;;;;;;6.83;3.20;;;12.70;99.90;;;;;;5062518;28;20211;-79
2023/08/05 04:21:28;;;;;;;7.37;3.20;;;12.70;99.90;;;;;;5080155;28;20208;-79
2023/08/05 04:23:54;;;;;;;4.37;3.10;;;12.70;99.90;;;;;;5080576;28;20177;-79
2023/08/05 04:26:20;;;;;;;3.20;2.90;;;12.70;99.90;;;;;;5062982;28;20628;-80
2023/08/05 04:28:46;;;;;;;5.67;2.70;;;12.80;99.90;;;;;;5062439;28;20226;-80
2023/08/05 04:31:12;;;;;;;4.13;2.70;;;12.80;99.90;;;;;;5080102;28;20183;-80
2023/08/05 04:33:37;;;;;;;4.33;2.70;;;12.80;99.90;;;;;;5062388;28;20177;-79
2023/08/05 04:36:03;;;;;;;3.70;2.87;;;12.80;99.90;;;;;;5062570;28;20192;-79
2023/08/05 04:38:28;;;;;;;3.50;2.50;;;12.80;99.90;;;;;;5061973;28;20246;-79
2023/08/05 04:40:54;;;;;;;3.40;2.60;;;12.80;99.90;;;;;;5080298;28;20184;-80
2023/08/05 04:43:20;;;;;;;2.77;2.33;;;12.70;99.90;;;;;;5062243;28;20223;-79
2023/08/05 04:45:50;;;;;;;3.20;2.53;;;12.80;99.90;;;;;;5079858;28;20235;-79
2023/08/05 04:48:16;;;;;;;3.20;2.60;;;12.90;99.90;;;;;;5061827;28;20671;-79
2023/08/05 04:50:42;;;;;;;3.03;2.60;;;12.90;99.90;;;;;;5079899;28;20177;-79
2023/08/05 04:53:08;;;;;;;3.80;2.60;;;13.00;99.90;;;;;;5062246;28;20181;-79
2023/08/05 04:55:33;;;;;;;2.57;2.30;;;13.00;99.90;;;;;;5061450;28;20180;-79
2023/08/05 04:57:59;;;;;;;3.27;2.40;;;13.10;99.90;;;;;;5061905;28;20193;-80
2023/08/05 05:00:25;;;;;;;4.10;2.60;;;13.10;99.90;;;;;;5080320;28;20212;-79
2023/08/05 05:02:51;;;;;;;3.50;2.73;;;13.00;99.90;;;;;;5079432;28;20755;-79
2023/08/05 05:05:17;;;;;;;3.40;2.97;;;13.00;99.90;;;;;;5062326;28;20193;-80
2023/08/05 05:07:43;;;;;;;3.60;2.73;;;13.10;99.90;;;;;;5061555;28;20280;-79
2023/08/05 05:10:09;;;;;;;4.93;3.17;;;13.20;99.90;;;;;;5061575;28;20181;-83
2023/08/05 05:12:34;;;;;;;3.53;2.67;;;13.10;99.90;;;;;;5063543;28;20181;-82
2023/08/05 05:15:00;;;;;;;6.50;2.73;;;13.10;99.90;;;;;;5081735;28;20534;-82
2023/08/05 05:17:32;;;;;;;3.23;2.93;;;13.00;99.90;;;;;;5062967;28;20193;-85
2023/08/05 05:19:57;;;;;;;4.43;2.93;;;13.00;99.90;;;;;;5063964;28;20185;-82
2023/08/05 05:22:23;;;;;;;3.20;2.67;;;13.00;99.90;;;;;;5064408;28;20201;-82
2023/08/05 05:24:50;;;;;;;3.40;2.70;;;13.10;99.90;;;;;;5064917;28;20317;-82
2023/08/05 05:27:17;;;;;;;4.60;2.60;;;13.10;99.90;;;;;;5083996;28;20213;-82
2023/08/05 05:29:44;;;;;;;7.33;2.90;;;13.20;99.90;;;;;;5083891;28;20248;-82
2023/08/05 05:32:10;;;;;;;5.13;2.63;;;13.20;99.90;;;;;;5067442;28;20179;-82
2023/08/05 05:34:35;;;;;;;2.93;2.43;;;13.20;99.90;;;;;;5065968;28;20318;-82
2023/08/05 05:37:01;;;;;;;3.00;2.73;;;13.10;99.90;;;;;;5057534;28;20279;-82
2023/08/05 05:39:27;;;;;;;3.30;2.90;;;13.20;99.90;;;;;;5057717;28;20183;-82
2023/08/05 05:41:53;;;;;;;3.03;2.70;;;13.20;99.90;;;;;;5075916;28;20204;-82
2023/08/05 05:44:18;;;;;;;3.70;2.77;;;13.10;99.90;;;;;;5057211;28;20169;-82
2023/08/05 05:46:44;;;;;;;4.00;2.80;;;13.00;99.90;;;;;;5075693;28;20287;-82
2023/08/05 05:49:10;;;;;;;3.13;2.60;;;13.10;99.90;;;;;;5058148;28;20169;-82
2023/08/05 05:51:36;;;;;;;3.80;2.67;;;13.20;99.90;;;;;;5057541;28;20177;-82
2023/08/05 05:54:02;;;;;;;3.47;3.17;;;13.30;99.90;;;;;;5058017;28;20181;-82
2023/08/05 05:56:28;;;;;;;4.10;2.70;;;13.30;99.90;;;;;;5057906;28;20235;-82
2023/08/05 05:58:54;;;;;;;3.57;2.73;;;13.20;99.90;;;;;;5057921;28;20181;-82
2023/08/05 06:01:20;;;;;;;3.30;2.90;;;13.30;99.90;;;;;;5057377;28;20247;-82
2023/08/05 06:03:46;;;;;;;3.97;3.10;;;13.30;99.90;;;;;;5057242;28;20654;-82
2023/08/05 06:06:12;;;;;;;3.40;2.97;;;13.20;99.90;;;;;;5057497;28;20196;-82
2023/08/05 06:08:38;;;;;;;3.33;3.03;;;13.30;99.90;;;;;;5057107;28;20599;-82
2023/08/05 06:11:04;;;;;;;8.40;3.13;;;13.40;99.90;;;;;;5057243;28;20173;-81
2023/08/05 06:13:30;;;;;;;3.00;2.70;;;13.40;99.90;;;;;;5057476;28;20180;-82
2023/08/05 06:15:56;;;;;;;2.87;2.63;;;13.50;99.90;;;;;;5057502;28;20238;-82
2023/08/05 06:18:21;;;;;;;3.20;2.90;;;13.60;99.90;;;;;;5057271;28;20188;-82
2023/08/05 06:20:50;;;;;;;2.93;2.73;;;13.60;99.90;;;;;;5056772;28;20185;-82
2023/08/05 06:23:16;;;;;;;3.93;2.80;;;13.70;99.90;;;;;;5075275;28;20200;-81
2023/08/05 06:25:42;;;;;;;3.00;2.70;;;13.70;99.90;;;;;;5075587;28;20180;-81
2023/08/05 06:28:08;;;;;;;3.10;2.70;;;13.70;99.90;;;;;;5056528;28;20192;-82
2023/08/05 06:30:34;;;;;;;2.77;2.57;;;13.70;99.90;;;;;;5075573;28;20181;-82
2023/08/05 06:33:00;;;;;;;2.73;2.53;;;13.80;99.90;;;;;;5075388;28;20187;-82
2023/08/05 06:35:26;;;;;;;2.77;2.57;;;13.90;99.90;;;;;;5057953;28;20184;-82
2023/08/05 06:37:52;;;;;;;2.87;2.67;;;14.00;99.90;;;;;;5057601;28;20197;-82
2023/08/05 06:40:17;;;;;;;2.60;2.40;;;14.10;99.90;;;;;;5075179;28;20173;-82
2023/08/05 06:42:43;;;;;;;2.87;2.60;;;14.10;99.90;;;;;;5057295;28;20240;-84
2023/08/05 06:45:09;;;;;;;3.20;2.90;;;14.30;99.90;;;;;;5075428;28;20184;-82
2023/08/05 06:47:35;;;;;;;3.33;3.03;;;14.40;99.90;;;;;;5057278;28;20204;-82
2023/08/05 06:50:04;;;;;;;3.17;2.80;;;14.50;99.90;;;;;;5075542;28;20166;-82
2023/08/05 06:52:30;;;;;;;3.93;2.73;;;14.60;99.90;;;;;;5056830;28;20176;-82
2023/08/05 06:54:57;;;;;;;3.27;2.97;;;14.60;99.90;;;;;;5074493;28;20183;-82
2023/08/05 06:57:22;;;;;;;3.03;2.83;;;14.70;99.90;;;;;;5056824;28;20573;-81
2023/08/05 06:59:48;;;;;;;3.27;3.00;;;14.70;99.90;;;;;;5060121;28;20268;-82
2023/08/05 07:02:14;;;;;;;3.20;2.93;;;14.70;99.90;;;;;;5060969;28;20204;-82
2023/08/05 07:04:39;;;;;;;3.47;3.17;;;14.70;99.90;;;;;;5079221;28;20201;-82
2023/08/05 07:07:05;;;;;;;3.00;2.70;;;14.70;99.90;;;;;;5061977;28;20254;-82
2023/08/05 07:09:32;;;;;;;3.67;3.37;;;14.70;99.90;;;;;;5061798;28;20275;-82
2023/08/05 07:11:57;;;;;;;3.77;3.27;;;14.80;99.90;;;;;;5061004;28;20733;-82
2023/08/05 07:14:23;;;;;;;4.00;3.60;;;14.80;99.90;;;;;;5060357;28;20219;-82
2023/08/05 07:16:49;;;;;;;6.53;3.90;;;14.90;99.90;;;;;;5061868;28;20200;-83
2023/08/05 07:19:14;;;;;;;3.97;3.57;;;14.90;99.90;;;;;;5080748;28;20172;-82
2023/08/05 07:21:40;;;;;;;5.33;3.70;;;14.90;99.90;;;;;;5061229;28;20215;-82
2023/08/05 07:24:05;;;;;;;4.37;3.90;;;15.00;99.90;;;;;;5060437;28;20169;-82
2023/08/05 07:26:31;;;;;;;4.53;4.03;;;15.10;99.90;;;;;;5060403;28;20189;-82
2023/08/05 07:28:56;;;;;;;7.10;4.47;;;15.30;99.90;;;;;;5061208;28;20180;-82
2023/08/05 07:31:22;;;;;;;4.73;3.70;;;15.20;99.90;;;;;;5061279;28;20204;-82
2023/08/05 07:33:49;;;;;;;4.97;4.00;;;15.30;99.90;;;;;;5061225;28;20706;-82
2023/08/05 07:36:22;;;;;;;5.43;4.07;;;15.40;99.90;;;;;;5079137;28;20177;-82
2023/08/05 07:38:49;;;;;;;4.80;4.33;;;15.50;99.90;;;;;;5061239;28;20173;-84
2023/08/05 07:41:15;;;;;;;4.77;4.27;;;15.60;99.90;;;;;;5061412;28;20184;-82
2023/08/05 07:43:42;;;;;;;5.13;4.50;;;15.50;99.90;;;;;;5061259;28;20303;-82
2023/08/05 07:46:11;;;;;;;6.03;4.50;;;15.70;99.90;;;;;;5079269;28;20542;-81
2023/08/05 07:48:37;;;;;;;6.87;4.57;;;15.80;99.90;;;;;;5061402;28;20619;-82
2023/08/05 07:51:06;;;;;;;5.90;4.53;;;15.80;99.90;;;;;;5079881;28;20173;-83
2023/08/05 07:53:37;;;;;;;4.93;4.47;;;15.80;99.90;;;;;;5060645;28;20239;-82
2023/08/05 07:56:10;;;;;;;5.53;4.87;;;16.00;99.90;;;;;;5078608;28;20226;-82
2023/08/05 07:58:36;;;;;;;4.93;4.10;;;16.10;99.90;;;;;;5079181;28;20169;-81
2023/08/05 08:01:02;;;;;;;5.07;4.57;;;16.10;99.90;;;;;;5060963;28;20642;-82
2023/08/05 08:03:29;;;;;;;5.07;4.57;;;16.10;99.90;;;;;;5079259;28;20193;-83
2023/08/05 08:05:54;;;;;;;7.73;5.00;;;16.10;99.90;;;;;;5078833;28;20188;-83
2023/08/05 08:08:20;;;;;;;4.67;4.10;;;16.00;99.90;;;;;;5079546;28;20186;-82
2023/08/05 08:10:46;;;;;;;6.33;4.40;;;16.10;99.90;;;;;;5078710;28;20164;-82
2023/08/05 08:13:12;;;;;;;4.30;3.90;;;16.10;99.90;;;;;;5061190;28;20165;-82
2023/08/05 08:15:37;;;;;;;5.20;4.70;;;16.20;99.90;;;;;;5060312;28;20212;-83
2023/08/05 08:18:03;;;;;;;5.83;4.57;;;16.20;99.90;;;;;;5059649;28;20227;-83
2023/08/05 08:20:28;;;;;;;5.63;4.30;;;16.30;99.90;;;;;;5059717;28;20177;-82
2023/08/05 08:22:54;;;;;;;5.63;4.80;;;16.40;99.90;;;;;;5060695;28;20197;-82
2023/08/05 08:25:20;;;;;;;5.33;4.10;;;16.50;99.90;;;;;;5078832;28;20173;-82
2023/08/05 08:27:45;;;;;;;4.50;4.10;;;16.60;99.90;;;;;;5077872;28;20220;-84
2023/08/05 08:30:12;;;;;;;4.30;3.90;;;16.70;99.90;;;;;;5059295;28;20173;-82
2023/08/05 08:32:38;;;;;;;4.00;3.40;;;16.70;99.90;;;;;;5058753;28;20314;-83
2023/08/05 08:35:04;;;;;;;3.50;3.10;;;16.80;99.90;;;;;;5078647;28;20216;-81
2023/08/05 08:37:29;;;;;;;3.50;3.20;;;16.80;99.90;;;;;;5059062;28;20204;-82
2023/08/05 08:39:55;;;;;;;3.97;3.17;;;16.80;99.90;;;;;;5077041;28;20176;-82
2023/08/05 08:42:21;;;;;;;3.13;2.83;;;16.80;99.90;;;;;;5059559;28;20292;-82
2023/08/05 08:44:48;;;;;;;3.53;3.23;;;17.00;99.90;;;;;;5059297;28;20276;-82
2023/08/05 08:47:16;;;;;;;3.40;2.77;;;17.20;99.90;;;;;;5058787;28;20299;-82
2023/08/05 08:49:46;;;;;;;3.77;3.00;;;17.50;99.90;;;;;;5076698;28;20644;-82
2023/08/05 08:52:16;;;;;;;3.10;2.70;;;17.60;99.90;;;;;;5077953;28;20184;-82
2023/08/05 08:54:43;;;;;;;3.20;2.90;;;17.70;99.90;;;;;;5058686;28;20234;-82
2023/08/05 08:57:09;;;;;;;3.20;2.90;;;17.60;99.90;;;;;;5059170;28;20216;-82
2023/08/05 08:59:35;;;;;;;3.30;2.83;;;17.60;99.90;;;;;;5059291;28;20204;-84
2023/08/05 09:02:06;;;;;;;2.97;2.50;;;17.60;99.90;;;;;;5077423;28;20544;-82
2023/08/05 09:04:35;;;;;;;3.10;2.37;;;17.70;99.90;;;;;;5077393;28;20169;-79
2023/08/05 09:07:01;;;;;;;3.53;2.70;;;18.00;1.00;;;;;;5076804;28;20247;-84
2023/08/05 09:09:29;;;;;;;3.27;2.70;;;17.90;1.00;;;;;;5058789;28;20522;-83
2023/08/05 09:11:56;;;;;;;2.93;2.73;;;17.80;1.00;;;;;;5058548;28;20557;-83
2023/08/05 09:14:22;;;;;;;3.20;2.63;;;17.80;1.00;;;;;;5058439;28;20173;-82
2023/08/05 09:17:01;;;;;;;3.13;2.73;;;18.00;1.00;;;;;;5077082;28;20204;-82
2023/08/05 09:19:29;;;;;;;5.37;2.57;;;18.40;1.00;;;;;;5057357;28;20651;-82
2023/08/05 09:21:55;;;;;;;3.93;2.77;;;18.60;1.00;;;;;;5056671;28;20204;-82
2023/08/05 09:24:24;;;;;;;3.30;2.57;;;18.80;1.00;;;;;;5075169;28;20169;-82
2023/08/05 09:26:57;;;;;;;3.67;2.20;;;18.70;99.90;;;;;;5056937;28;20185;-82
2023/08/05 09:29:24;;;;;;;3.17;2.63;;;18.70;99.90;;;;;;5057737;28;20256;-82
2023/08/05 09:31:57;;;;;;;4.20;2.67;;;18.70;99.90;;;;;;5075077;28;20169;-83
2023/08/05 09:34:41;;;;;;;4.37;2.50;;;18.70;99.90;;;;;;5057700;28;20168;-82
2023/08/05 09:37:06;;;;;;;3.30;2.43;;;18.90;1.00;;;;;;5057677;28;20279;-82
2023/08/05 09:39:47;;;;;;;3.20;2.90;;;19.10;1.00;;;;;;5076049;28;20200;-81
2023/08/05 09:42:23;;;;;;;3.33;2.97;;;19.40;1.00;;;;;;5076243;28;20196;-82
2023/08/05 09:44:52;;;;;;;3.63;3.23;;;19.60;99.90;;;;;;5058356;28;20175;-83
2023/08/05 09:47:21;;;;;;;3.20;2.90;;;19.90;99.90;;;;;;5076722;28;20177;-82
2023/08/05 09:49:50;;;;;;;3.77;3.30;;;20.20;99.90;;;;;;5075772;28;20196;-82
2023/08/05 09:52:18;;;;;;;3.08;2.65;;;20.30;1.00;;;;;;5075985;28;20180;-82
2023/08/05 09:54:57;;;;;;;2.95;2.67;;;20.40;99.90;;;;;;5057872;28;20633;-82
2023/08/05 09:57:23;;;;;;;3.10;2.80;;;20.50;1.00;;;;;;5058341;28;20192;-82
2023/08/05 09:59:50;;;;;;;3.30;2.58;;;20.50;1.00;;;;;;5075634;28;20193;-83
2023/08/05 10:02:24;;;;;;;2.70;2.50;;;20.50;1.00;;;;;;5057335;28;20744;-82
2023/08/05 10:04:53;;;;;;;2.70;2.42;;;20.60;99.90;;;;;;5075840;28;20225;-83
2023/08/05 10:07:20;;;;;;;2.90;2.30;;;20.90;85.40;;;;;;5076244;28;20181;-82
2023/08/05 10:09:47;;;;;;;3.33;2.45;;;21.00;99.90;;;;;;5074739;28;20647;-82
2023/08/05 10:12:15;;;;;;;2.20;2.03;;;20.80;85.30;;;;;;5076018;28;20266;-82
2023/08/05 10:14:41;;;;;;;2.58;2.05;;;20.80;1.00;;;;;;5057937;28;20173;-82
2023/08/05 10:17:07;;;;;;;3.03;2.00;;;21.00;99.90;;;;;;5075688;28;20189;-82
2023/08/05 10:19:33;;;;;;;3.00;2.00;;;21.10;1.00;;;;;;5057490;28;20176;-82
2023/08/05 10:22:11;;;;;;;2.95;2.10;;;21.20;99.90;;;;;;5058125;28;20639;-82
2023/08/05 10:24:59;;;;;;;2.85;1.98;;;21.40;99.90;;;;;;5076270;28;20785;-82
2023/08/05 10:27:34;;;;;;;1.77;1.67;;;21.70;1.00;;;;;;5075880;28;20563;-83
2023/08/05 10:30:10;;;;;;;2.72;1.85;;;22.00;1.00;;;;;;5058317;28;20168;-81
2023/08/05 10:32:49;;;;;;;1.77;1.67;;;22.10;69.30;;;;;;5075774;28;20547;-82
2023/08/05 10:35:26;;;;;;;2.60;2.00;;;22.10;99.90;;;;;;5058329;28;20181;-82
2023/08/05 10:38:05;;;;;;;1.85;1.50;;;22.20;1.00;;;;;;5059077;28;20607;-81
2023/08/05 10:40:43;;;;;;;3.05;1.80;;;22.20;1.00;;;;;;5076600;28;20180;-83
2023/08/05 10:43:12;;;;;;;2.22;1.33;;;22.10;99.90;;;;;;5058095;28;20224;-84
2023/08/05 10:45:42;;;;;;;1.38;1.25;;;22.00;1.00;;;;;;5076642;28;20165;-82
2023/08/05 10:48:09;;;;;;;1.33;1.10;;;21.80;1.00;;;;;;5058281;28;20214;-82
2023/08/05 10:50:37;;;;;;;1.77;1.45;;;22.00;99.90;;;;;;5075616;28;20195;-84
2023/08/05 10:53:06;;;;;;;3.92;1.33;;;22.30;1.00;;;;;;5075048;28;20162;-82
2023/08/05 10:55:48;;;;;;;1.50;1.40;;;22.50;1.00;;;;;;5057258;28;20177;-82
2023/08/05 10:58:14;;;;;;;1.40;1.30;;;22.70;1.00;;;;;;5076307;28;20197;-82
2023/08/05 11:00:42;;;;;;;3.90;1.30;;;22.80;59.20;;;;;;5056913;28;20201;-82
2023/08/05 11:03:32;;;;;;;1.30;1.20;;;22.60;99.90;;;;;;5075430;28;20208;-82
2023/08/05 11:06:05;;;;;;;1.30;1.20;;;22.70;1.00;;;;;;5074551;28;20165;-82
2023/08/05 11:08:35;;;;;;;1.30;1.20;;;22.60;1.00;;;;;;5057106;28;20217;-82
2023/08/05 11:11:15;;;;;;;1.58;1.40;;;23.00;48.60;;;;;;5057401;28;20196;-82
2023/08/05 11:13:44;;;;;;;1.70;1.52;;;23.30;99.90;;;;;;5075829;28;20165;-81
2023/08/05 11:16:12;;;;;;;1.65;1.30;;;23.50;1.00;;;;;;5056962;28;20275;-83
2023/08/05 11:18:42;;;;;;;2.28;1.80;;;23.40;99.90;;;;;;5057294;28;20227;-82
2023/08/05 11:21:12;;;;;;;3.40;1.40;;;23.20;1.00;;;;;;5056174;28;20617;-81
2023/08/05 11:23:40;;;;;;;2.20;1.30;;;23.10;1.00;;;;;;5074858;28;20173;-82
2023/08/05 11:26:06;;;;;;;2.20;1.50;;;23.20;1.00;;;;;;5076412;28;20177;-82
2023/08/05 11:28:32;;;;;;;1.83;1.30;;;23.70;99.90;;;;;;5056427;28;20706;-82
2023/08/05 11:31:00;;;;;;;1.80;1.33;;;24.10;99.90;;;;;;5057344;28;20230;-80
2023/08/05 11:33:26;;;;;;;2.35;1.30;;;24.40;99.90;;;;;;5057636;28;20177;-82
2023/08/05 11:35:53;;;;;;;2.03;1.30;;;24.30;1.00;;;;;;5057439;28;20172;-82
2023/08/05 11:38:20;;;;;;;2.15;1.40;;;24.10;1.00;;;;;;5074782;28;20198;-82
2023/08/05 11:40:48;;;;;;;1.40;1.30;;;24.10;99.90;;;;;;5075260;28;20177;-82
2023/08/05 11:43:15;;;;;;;1.58;1.40;;;24.30;99.90;;;;;;5075516;28;20192;-82
2023/08/05 11:45:41;;;;;;;1.40;1.30;;;24.70;92.10;;;;;;5076546;28;20176;-82
2023/08/05 11:48:26;;;;;;;1.60;1.50;;;24.70;18.40;;;;;;5061244;28;20637;-82
2023/08/05 11:51:01;;;;;;;1.40;1.17;;;25.00;99.90;;;;;;5078861;28;20180;-83
2023/08/05 11:53:27;;;;;;;1.27;1.17;;;24.90;1.00;;;;;;5060298;28;20758;-82
2023/08/05 11:55:53;;;;;;;1.90;1.20;;;24.60;1.00;;;;;;5060414;28;20172;-83
2023/08/05 11:58:20;;;;;;;1.20;1.10;;;24.40;1.00;;;;;;5061607;28;20562;-81
2023/08/05 12:00:47;;;;;;;1.60;1.30;;;24.60;99.90;;;;;;5079010;28;20173;-82
2023/08/05 12:03:13;;;;;;;2.17;1.40;;;24.80;1.00;;;;;;5061520;28;20337;-82
2023/08/05 12:05:43;;;;;;;1.25;1.15;;;24.80;1.00;;;;;;5079477;28;20176;-82
2023/08/05 12:08:10;;;;;;;1.27;1.17;;;24.90;1.00;;;;;;5079019;28;20193;-82
2023/08/05 12:10:35;;;;;;;1.77;1.30;;;25.00;1.00;;;;;;5078958;28;20269;-83
2023/08/05 12:13:03;;;;;;;1.67;1.38;;;25.30;1.00;;;;;;5078987;28;20659;-82
2023/08/05 12:15:29;;;;;;;1.92;1.30;;;25.50;1.00;;;;;;5078738;28;20234;-82
2023/08/05 12:18:00;;;;;;;2.15;1.23;;;25.40;1.00;;;;;;5060908;28;20288;-82
2023/08/05 12:20:28;;;;;;;1.48;1.13;;;25.20;1.00;;;;;;5060941;28;20168;-82
2023/08/05 12:22:55;;;;;;;1.20;1.10;;;25.50;1.00;;;;;;5061931;28;20184;-82
2023/08/05 12:25:22;;;;;;;2.35;1.35;;;25.50;1.00;;;;;;5062551;28;20177;-82
2023/08/05 12:27:48;;;;;;;1.15;1.10;;;25.80;1.00;;;;;;5062316;28;20694;-82
2023/08/05 12:30:14;;;;;;;2.53;1.30;;;25.90;1.00;;;;;;5062399;28;20177;-84
2023/08/05 12:32:40;;;;;;;1.95;1.17;;;25.70;1.00;;;;;;5062831;28;20193;-82
2023/08/05 12:35:10;;;;;;;2.00;1.38;;;25.90;1.00;;;;;;5060947;28;20206;-83
2023/08/05 12:37:37;;;;;;;1.70;1.58;;;25.70;1.00;;;;;;5060769;28;20220;-82
2023/08/05 12:40:04;;;;;;;2.17;1.20;;;25.00;1.00;;;;;;5060776;28;20550;-82
2023/08/05 12:42:31;;;;;;;2.28;1.20;;;24.50;1.00;;;;;;5061200;28;20180;-82
2023/08/05 12:44:59;;;;;;;1.55;1.30;;;23.80;1.00;;;;;;5061846;28;20173;-82
2023/08/05 12:47:25;;;;;;;1.35;1.25;;;23.70;1.00;;;;;;5080614;28;20729;-82